< < Back
Terminal Aerodrome Forecast


Current Version              Previous Versions:   1  2  3  4  5  6  7  8  9  

Terminal Aerodrome Forecast

033
FTUS42 KJAX 050833 AAA
TAFJAX
TAF AMD
KJAX 050833Z 0509/0606 00000KT 5SM BR SCT250
      TEMPO 0509/0512 2SM BR SCT001
     FM051200 23002KT P6SM SCT250
     FM051400 25005KT P6SM SCT030 SCT120
     FM051800 24007KT P6SM VCTS SCT040CB BKN100
     FM052000 15008KT P6SM VCTS SCT040CB BKN100
      TEMPO 0520/0524 VRB15G25KT 3SM TSRA BR BKN030CB OVC060
     FM060200 19004KT P6SM SCT100 BKN200=

Latest METAR

523
SAUS80 KWBC 051400
MTRJAX
METAR KJAX 051356Z 23003KT 10SM FEW250 27/23 A3017 RMK AO2 SLP217
T02720228 $


USA.gov is the U.S. government's official web portal to all federal, state and local government web resources and services.